Terminal Aerodrome Forecast
Issued by NWS Wilmington, NC

Home | Current Version | Previous Version | Text Only | Print | Product List | Glossary On
Versions: 1 2 3 4 5 6 7 8 9 10 11 12 13 14 15 16 17 18
000
FTUS42 KILM 262320
TAFMYR
TAF
KMYR 262320Z 2700/2724 09006KT P6SM SCT025
     FM270600 10005KT P6SM FEW010
     FM271200 08004KT 5SM HZ FEW250
     FM271500 11008KT P6SM FEW250
     FM271800 17011KT P6SM SKC
      AMD LTD TO CLD VIS AND WIND 2703/2710=

USA.gov is the U.S. government's official web portal to all federal, state and local government web resources and services.